Time;durP1;ratioP1;P1;durP2;ratioP2;P2;SDS_P1;SDS_P2;PMS_P1;PMS_P2;Temp;Humidity;BMP_temperature;BMP_pressure;BME280_temperature;BME280_humidity;BME280_pressure;Samples;Min_cycle;Max_cycle;Signal;HPM_P1;HPM_P2
2023/09/29 00:00:24;;;;;;;;;;;22.00;1.00;;;;;;4956714;29;19926;-55
2023/09/29 00:02:53;;;;;;;;;;;22.00;1.00;;;;;;4938408;29;20010;-53
2023/09/29 00:05:21;;;;;;;;;;;22.00;1.00;;;;;;4938070;29;19927;-52
2023/09/29 00:07:49;;;;;;;;;;;22.00;1.00;;;;;;4949590;29;19927;-52
2023/09/29 00:10:16;;;;;;;;;;;22.00;1.00;;;;;;4956911;29;19932;-50
2023/09/29 00:12:44;;;;;;;;;;;22.00;1.00;;;;;;4953748;29;19933;-53
2023/09/29 00:15:11;;;;;;;;;;;22.00;1.00;;;;;;4952532;29;20183;-50
2023/09/29 00:17:38;;;;;;;;;;;22.00;1.00;;;;;;4956931;29;20270;-56
2023/09/29 00:22:41;;;;;;;;;;;22.00;1.00;;;;;;4956789;29;20393;-50
2023/09/29 00:25:08;;;;;;;;;;;22.00;1.00;;;;;;4956839;29;19927;-55
2023/09/29 00:27:34;;;;;;;;;;;22.00;1.00;;;;;;4956839;29;20359;-52
2023/09/29 00:30:04;;;;;;;;;;;22.00;1.00;;;;;;4956485;29;19931;-52
2023/09/29 00:32:31;;;;;;;;;;;22.00;1.00;;;;;;4939310;29;20400;-52
2023/09/29 00:34:58;;;;;;;;;;;22.00;1.00;;;;;;4939425;29;20397;-55
2023/09/29 00:37:25;;;;;;;;;;;22.00;1.00;;;;;;4939178;29;20021;-54
2023/09/29 00:39:56;;;;;;;;;;;22.00;1.00;;;;;;4938975;29;20393;-55
2023/09/29 00:42:23;;;;;;;;;;;21.90;1.00;;;;;;4937993;29;20471;-53
2023/09/29 00:44:49;;;;;;;;;;;21.90;1.00;;;;;;4956508;29;19927;-52
2023/09/29 00:47:16;;;;;;;;;;;21.90;1.00;;;;;;4939291;29;19927;-55
2023/09/29 00:49:46;;;;;;;;;;;21.90;1.00;;;;;;4938919;29;20194;-52
2023/09/29 00:52:15;;;;;;;;;;;21.90;1.00;;;;;;4956385;29;19926;-56
2023/09/29 00:54:42;;;;;;;;;;;21.90;1.00;;;;;;4956110;29;19933;-51
2023/09/29 00:57:09;;;;;;;;;;;21.90;1.00;;;;;;4939080;29;19930;-53
2023/09/29 00:59:36;;;;;;;;;;;21.90;1.00;;;;;;4938387;29;19931;-53
2023/09/29 01:02:05;;;;;;;;;;;21.90;1.00;;;;;;4939207;29;19927;-56
2023/09/29 01:04:33;;;;;;;;;;;21.90;1.00;;;;;;4947902;29;19958;-59
2023/09/29 01:07:02;;;;;;;;;;;21.90;1.00;;;;;;4938852;29;19974;-53
2023/09/29 01:09:29;;;;;;;;;;;21.90;1.00;;;;;;4938371;29;19927;-54
2023/09/29 01:11:55;;;;;;;;;;;21.90;1.00;;;;;;4938859;29;19958;-56
2023/09/29 01:14:22;;;;;;;;;;;21.90;1.00;;;;;;4938823;29;20021;-56
2023/09/29 01:16:49;;;;;;;;;;;21.90;1.00;;;;;;4938501;29;19926;-56
2023/09/29 01:19:17;;;;;;;;;;;21.90;1.00;;;;;;4938204;29;20003;-56
2023/09/29 01:21:44;;;;;;;;;;;21.90;1.00;;;;;;4938508;29;20427;-54
2023/09/29 01:24:11;;;;;;;;;;;21.90;1.00;;;;;;4955847;29;19934;-53
2023/09/29 01:26:38;;;;;;;;;;;21.90;1.00;;;;;;4930503;29;19927;-53
2023/09/29 01:29:05;;;;;;;;;;;21.90;1.00;;;;;;4955467;29;20356;-55
2023/09/29 01:31:34;;;;;;;;;;;21.90;1.00;;;;;;4938271;29;19927;-53
2023/09/29 01:34:04;;;;;;;;;;;21.90;1.00;;;;;;4955660;29;20303;-53
2023/09/29 01:36:31;;;;;;;;;;;21.90;1.00;;;;;;4938216;29;19941;-53
2023/09/29 01:38:58;;;;;;;;;;;21.90;1.00;;;;;;4938446;29;20364;-56
2023/09/29 01:41:25;;;;;;;;;;;21.80;1.00;;;;;;4938198;29;20011;-53
2023/09/29 01:43:52;;;;;;;;;;;21.80;1.00;;;;;;4938103;29;19926;-50
2023/09/29 01:46:19;;;;;;;;;;;21.80;1.00;;;;;;4938240;29;20022;-56
2023/09/29 01:48:46;;;;;;;;;;;21.80;1.00;;;;;;4937996;29;20404;-52
2023/09/29 01:51:13;;;;;;;;;;;21.80;1.00;;;;;;4955031;29;19933;-56
2023/09/29 01:53:39;;;;;;;;;;;21.80;1.00;;;;;;4937846;29;20410;-51
2023/09/29 01:56:07;;;;;;;;;;;21.80;1.00;;;;;;4955122;29;19933;-53
2023/09/29 01:58:34;;;;;;;;;;;21.80;1.00;;;;;;4937822;29;19973;-54
2023/09/29 02:01:01;;;;;;;;;;;21.80;1.00;;;;;;4937445;29;19927;-54
2023/09/29 02:03:27;;;;;;;;;;;21.80;1.00;;;;;;4930447;29;19926;-55
2023/09/29 02:05:55;;;;;;;;;;;21.80;1.00;;;;;;4954863;29;20412;-55
2023/09/29 02:08:22;;;;;;;;;;;21.80;1.00;;;;;;4954849;29;20357;-59
2023/09/29 02:10:50;;;;;;;;;;;21.80;1.00;;;;;;4957063;23;19952;-53
2023/09/29 02:13:18;;;;;;;;;;;21.80;1.00;;;;;;4938012;29;19926;-50
2023/09/29 02:15:44;;;;;;;;;;;21.80;1.00;;;;;;4937463;29;20384;-56
2023/09/29 02:18:11;;;;;;;;;;;21.80;1.00;;;;;;4937840;29;20017;-52
2023/09/29 02:20:46;;;;;;;;;;;21.70;1.00;;;;;;4944832;28;20322;-54
2023/09/29 02:23:14;;;;;;;;;;;21.70;1.00;;;;;;4948748;28;19985;-50
2023/09/29 02:25:41;;;;;;;;;;;21.70;1.00;;;;;;4956446;28;19934;-53
2023/09/29 02:28:11;;;;;;;;;;;21.70;1.00;;;;;;4956568;28;19926;-52
2023/09/29 02:30:38;;;;;;;;;;;21.70;1.00;;;;;;4973405;28;20020;-54
2023/09/29 02:33:07;;;;;;;;;;;21.70;1.00;;;;;;4952044;29;20349;-55
2023/09/29 02:35:35;;;;;;;;;;;21.70;1.00;;;;;;4953831;28;20366;-54
2023/09/29 02:38:03;;;;;;;;;;;21.70;1.00;;;;;;4973817;28;19965;-56
2023/09/29 02:40:30;;;;;;;;;;;21.70;1.00;;;;;;4973339;28;19973;-56
2023/09/29 02:42:57;;;;;;;;;;;21.70;1.00;;;;;;4956901;28;19930;-50
2023/09/29 02:45:24;;;;;;;;;;;21.70;1.00;;;;;;4947215;28;19937;-54
2023/09/29 02:47:52;;;;;;;;;;;21.70;1.00;;;;;;4965522;28;19927;-55
2023/09/29 02:50:19;;;;;;;;;;;21.70;1.00;;;;;;4955382;28;19965;-55
2023/09/29 02:52:46;;;;;;;;;;;21.70;1.00;;;;;;4963968;28;20546;-55
2023/09/29 02:55:14;;;;;;;;;;;21.70;1.00;;;;;;4967279;28;19933;-50
2023/09/29 02:57:43;;;;;;;;;;;21.70;1.00;;;;;;4972807;28;19958;-55
2023/09/29 03:00:15;;;;;;;;;;;21.70;1.00;;;;;;4949189;28;19962;-53
2023/09/29 03:02:42;;;;;;;;;;;21.70;1.00;;;;;;4965389;28;19969;-52
2023/09/29 03:05:09;;;;;;;;;;;21.70;1.00;;;;;;4965132;28;20025;-51
2023/09/29 03:07:36;;;;;;;;;;;21.70;1.00;;;;;;4965310;28;19965;-55
2023/09/29 03:10:07;;;;;;;;;;;21.70;1.00;;;;;;4952097;29;19977;-54
2023/09/29 03:12:36;;;;;;;;;;;21.60;1.00;;;;;;4952679;28;20108;-54
2023/09/29 03:15:03;;;;;;;;;;;21.60;1.00;;;;;;4973315;28;20277;-55
2023/09/29 03:17:31;;;;;;;;;;;21.70;1.00;;;;;;4973315;28;19933;-55
2023/09/29 03:19:58;;;;;;;;;;;21.60;1.00;;;;;;4958733;28;19981;-53
2023/09/29 03:22:25;;;;;;;;;;;21.70;1.00;;;;;;4965253;28;19926;-55
2023/09/29 03:24:52;;;;;;;;;;;21.60;1.00;;;;;;4955706;28;19938;-56
2023/09/29 03:27:20;;;;;;;;;;;21.70;1.00;;;;;;4948064;28;19941;-53
2023/09/29 03:29:46;;;;;;;;;;;21.60;1.00;;;;;;4947551;28;20055;-55
2023/09/29 03:32:14;;;;;;;;;;;21.70;1.00;;;;;;4973002;28;20383;-54
2023/09/29 03:34:42;;;;;;;;;;;21.60;1.00;;;;;;4965072;28;19976;-56
2023/09/29 03:37:09;;;;;;;;;;;21.60;1.00;;;;;;4973097;28;19932;-56
2023/09/29 03:39:35;;;;;;;;;;;21.60;1.00;;;;;;4972856;28;19926;-52
2023/09/29 03:42:02;;;;;;;;;;;21.60;1.00;;;;;;4964841;28;19940;-55
2023/09/29 03:44:29;;;;;;;;;;;21.60;1.00;;;;;;4973180;28;20487;-51
2023/09/29 03:46:56;;;;;;;;;;;21.60;1.00;;;;;;4963040;28;20597;-54
2023/09/29 03:49:23;;;;;;;;;;;21.60;1.00;;;;;;4967219;28;19930;-52
2023/09/29 03:51:51;;;;;;;;;;;21.60;1.00;;;;;;4972736;28;19934;-51
2023/09/29 03:54:18;;;;;;;;;;;21.60;1.00;;;;;;4973166;28;19933;-54
2023/09/29 03:56:45;;;;;;;;;;;21.60;1.00;;;;;;4972630;28;19930;-50
2023/09/29 03:59:12;;;;;;;;;;;21.60;1.00;;;;;;4964683;28;19957;-55
2023/09/29 04:01:39;;;;;;;;;;;21.60;1.00;;;;;;4972833;28;19930;-50
2023/09/29 04:04:06;;;;;;;;;;;21.60;1.00;;;;;;4973037;28;19926;-54
2023/09/29 04:06:34;;;;;;;;;;;21.60;1.00;;;;;;4972834;28;19932;-55
2023/09/29 04:09:00;;;;;;;;;;;21.60;1.00;;;;;;4972161;28;19930;-51
2023/09/29 04:11:27;;;;;;;;;;;21.60;1.00;;;;;;4972929;28;19927;-54
2023/09/29 04:13:54;;;;;;;;;;;21.60;1.00;;;;;;4970987;28;20021;-52
2023/09/29 04:16:21;;;;;;;;;;;21.60;1.00;;;;;;4965886;28;19981;-50
2023/09/29 04:18:48;;;;;;;;;;;21.60;1.00;;;;;;4972484;28;19932;-52
2023/09/29 04:21:15;;;;;;;;;;;21.60;1.00;;;;;;4964251;28;19927;-55
2023/09/29 04:23:45;;;;;;;;;;;21.60;1.00;;;;;;4972519;28;19926;-51
2023/09/29 04:26:16;;;;;;;;;;;21.60;1.00;;;;;;4968848;28;19926;-53
2023/09/29 04:28:43;;;;;;;;;;;21.50;1.00;;;;;;4975349;28;20435;-52
2023/09/29 04:31:10;;;;;;;;;;;21.50;1.00;;;;;;4967872;28;20017;-55
2023/09/29 04:33:37;;;;;;;;;;;21.50;1.00;;;;;;4968155;28;20024;-54
2023/09/29 04:36:05;;;;;;;;;;;21.50;1.00;;;;;;4971927;28;19930;-55
2023/09/29 04:38:32;;;;;;;;;;;21.50;1.00;;;;;;4971120;28;19933;-51
2023/09/29 04:40:59;;;;;;;;;;;21.50;1.00;;;;;;4975363;28;19933;-50
2023/09/29 04:43:28;;;;;;;;;;;21.50;1.00;;;;;;4970432;28;19952;-52
2023/09/29 04:45:55;;;;;;;;;;;21.50;1.00;;;;;;4973850;28;20443;-60
2023/09/29 04:48:22;;;;;;;;;;;21.50;1.00;;;;;;4975835;28;19926;-53
2023/09/29 04:50:49;;;;;;;;;;;21.50;1.00;;;;;;4975101;28;19929;-50
2023/09/29 04:53:16;;;;;;;;;;;21.50;1.00;;;;;;4975891;28;20370;-56
2023/09/29 04:55:43;;;;;;;;;;;21.50;1.00;;;;;;4975560;28;20025;-54
2023/09/29 04:58:09;;;;;;;;;;;21.50;1.00;;;;;;4958374;28;19972;-54
2023/09/29 05:00:37;;;;;;;;;;;21.50;1.00;;;;;;4975492;28;19933;-53
2023/09/29 05:03:04;;;;;;;;;;;21.50;1.00;;;;;;4973403;28;19974;-56
2023/09/29 05:05:31;;;;;;;;;;;21.50;1.00;;;;;;4964391;28;19933;-56
2023/09/29 05:07:58;;;;;;;;;;;21.50;1.00;;;;;;4973739;28;19926;-55
2023/09/29 05:10:24;;;;;;;;;;;21.50;1.00;;;;;;4974339;28;20306;-56
2023/09/29 05:12:51;;;;;;;;;;;21.50;1.00;;;;;;4967128;28;19934;-56
2023/09/29 05:15:18;;;;;;;;;;;21.50;1.00;;;;;;4964468;28;19943;-56
2023/09/29 05:17:45;;;;;;;;;;;21.50;1.00;;;;;;4967060;28;19930;-56
2023/09/29 05:20:18;;;;;;;;;;;21.50;1.00;;;;;;5041397;23;19930;-56
2023/09/29 05:22:45;;;;;;;;;;;21.50;1.00;;;;;;4956222;29;19981;-55
2023/09/29 05:25:12;;;;;;;;;;;21.50;1.00;;;;;;4955727;29;19926;-56
2023/09/29 05:27:38;;;;;;;;;;;21.50;1.00;;;;;;4955834;29;20006;-56
2023/09/29 05:30:05;;;;;;;;;;;21.50;1.00;;;;;;4965433;28;19926;-56
2023/09/29 05:32:33;;;;;;;;;;;21.50;1.00;;;;;;4970210;28;19934;-56
2023/09/29 05:35:00;;;;;;;;;;;21.40;1.00;;;;;;4968470;28;19926;-56
2023/09/29 05:37:27;;;;;;;;;;;21.40;1.00;;;;;;4967406;28;19927;-55
2023/09/29 05:39:53;;;;;;;;;;;21.40;1.00;;;;;;4962099;28;20383;-52
2023/09/29 05:42:21;;;;;;;;;;;21.40;1.00;;;;;;4973232;28;19926;-55
2023/09/29 05:45:03;;;;;;;;;;;21.40;1.00;;;;;;4964737;28;19930;-57
2023/09/29 05:47:30;;;;;;;;;;;21.40;1.00;;;;;;4972886;28;19969;-55
2023/09/29 05:49:57;;;;;;;;;;;21.40;1.00;;;;;;4970790;28;20332;-57
2023/09/29 05:52:44;;;;;;;;;;;21.40;1.00;;;;;;4968810;28;20024;-52
2023/09/29 05:55:30;;;;;;;;;;;21.40;1.00;;;;;;4967093;28;19926;-56
2023/09/29 05:57:56;;;;;;;;;;;21.40;1.00;;;;;;4970976;28;19932;-54
2023/09/29 06:00:24;;;;;;;;;;;21.40;1.00;;;;;;4965993;28;19926;-56
2023/09/29 06:02:51;;;;;;;;;;;21.40;1.00;;;;;;4963806;28;19962;-53
2023/09/29 06:05:18;;;;;;;;;;;21.40;1.00;;;;;;4962961;28;19969;-55
2023/09/29 06:07:45;;;;;;;;;;;21.40;1.00;;;;;;4969349;28;20430;-54
2023/09/29 06:10:12;;;;;;;;;;;21.40;1.00;;;;;;4963960;28;19965;-54
2023/09/29 06:12:39;;;;;;;;;;;21.40;1.00;;;;;;4973296;28;19934;-53
2023/09/29 06:15:06;;;;;;;;;;;21.40;1.00;;;;;;4972801;28;19976;-53
2023/09/29 06:17:33;;;;;;;;;;;21.40;1.00;;;;;;4973111;28;19941;-54
2023/09/29 06:20:00;;;;;;;;;;;21.40;1.00;;;;;;4964527;28;19942;-54
2023/09/29 06:22:27;;;;;;;;;;;21.40;1.00;;;;;;4973134;28;19961;-52
2023/09/29 06:24:53;;;;;;;;;;;21.40;1.00;;;;;;4965869;28;20388;-55
2023/09/29 06:27:20;;;;;;;;;;;21.40;1.00;;;;;;4966009;28;19926;-54
2023/09/29 06:29:50;;;;;;;;;;;21.40;1.00;;;;;;4966394;28;20351;-52
2023/09/29 06:32:17;;;;;;;;;;;21.40;1.00;;;;;;4970352;28;19931;-54
2023/09/29 06:34:44;;;;;;;;;;;21.40;1.00;;;;;;4969350;28;20295;-55
2023/09/29 06:37:11;;;;;;;;;;;21.40;1.00;;;;;;4965831;28;19926;-54
2023/09/29 06:39:37;;;;;;;;;;;21.40;1.00;;;;;;4973478;28;20380;-50
2023/09/29 06:42:04;;;;;;;;;;;21.40;1.00;;;;;;4973381;28;19932;-56
2023/09/29 06:44:32;;;;;;;;;;;21.40;1.00;;;;;;4956240;28;19968;-56
2023/09/29 06:46:59;;;;;;;;;;;21.40;1.00;;;;;;4973692;28;19926;-52
2023/09/29 06:49:26;;;;;;;;;;;21.40;1.00;;;;;;4973453;28;19930;-52
2023/09/29 06:51:53;;;;;;;;;;;21.40;1.00;;;;;;4973429;28;19926;-56
2023/09/29 06:54:19;;;;;;;;;;;21.40;1.00;;;;;;4965330;28;19980;-59
2023/09/29 06:56:46;;;;;;;;;;;21.40;1.00;;;;;;4973580;28;19965;-51
2023/09/29 06:59:13;;;;;;;;;;;21.40;1.00;;;;;;4965114;28;19926;-52
2023/09/29 07:01:40;;;;;;;;;;;21.40;1.00;;;;;;4965461;28;19930;-52
2023/09/29 07:04:07;;;;;;;;;;;21.30;1.00;;;;;;4965245;28;20387;-53
2023/09/29 07:06:36;;;;;;;;;;;21.40;1.00;;;;;;4973324;28;19926;-50
2023/09/29 07:09:03;;;;;;;;;;;21.30;1.00;;;;;;4972917;28;19933;-51
2023/09/29 07:11:31;;;;;;;;;;;21.40;1.00;;;;;;4973523;28;20020;-52
2023/09/29 07:13:57;;;;;;;;;;;21.30;1.00;;;;;;4973175;28;19926;-54
2023/09/29 07:16:24;;;;;;;;;;;21.40;1.00;;;;;;4975691;28;20407;-56
2023/09/29 07:18:52;;;;;;;;;;;21.30;1.00;;;;;;4975165;28;19932;-55
2023/09/29 07:21:19;;;;;;;;;;;21.30;1.00;;;;;;4965295;28;19940;-50
2023/09/29 07:23:46;;;;;;;;;;;21.30;1.00;;;;;;4973537;28;20024;-54
2023/09/29 07:26:13;;;;;;;;;;;21.40;1.00;;;;;;4971174;28;19927;-56
2023/09/29 07:28:40;;;;;;;;;;;21.40;1.00;;;;;;4967213;28;19926;-54
2023/09/29 07:31:07;;;;;;;;;;;21.40;1.00;;;;;;4972763;28;19957;-52
2023/09/29 07:33:34;;;;;;;;;;;21.30;1.00;;;;;;4968487;28;19930;-54
2023/09/29 07:36:01;;;;;;;;;;;21.30;1.00;;;;;;4969985;28;19926;-55
2023/09/29 07:38:28;;;;;;;;;;;21.30;1.00;;;;;;4965150;28;19933;-51
2023/09/29 07:40:54;;;;;;;;;;;21.30;1.00;;;;;;4964700;28;19929;-50
2023/09/29 07:43:21;;;;;;;;;;;21.30;1.00;;;;;;4972842;28;20323;-54
2023/09/29 07:45:48;;;;;;;;;;;21.30;1.00;;;;;;4973118;28;20024;-52
2023/09/29 07:48:16;;;;;;;;;;;21.40;1.00;;;;;;4972831;28;19965;-51
2023/09/29 07:50:43;;;;;;;;;;;21.30;1.00;;;;;;4972651;28;19957;-53
2023/09/29 07:53:11;;;;;;;;;;;21.40;1.00;;;;;;4975240;28;19933;-55
2023/09/29 07:55:38;;;;;;;;;;;21.40;1.00;;;;;;4976726;28;20421;-59
2023/09/29 07:58:06;;;;;;;;;;;21.30;1.00;;;;;;4976448;28;19926;-54
2023/09/29 08:00:32;;;;;;;;;;;21.30;1.00;;;;;;4968385;28;19958;-55
2023/09/29 08:03:00;;;;;;;;;;;21.30;1.00;;;;;;4976550;28;19927;-55
2023/09/29 08:05:27;;;;;;;;;;;21.30;1.00;;;;;;4951701;28;19926;-52
2023/09/29 08:07:54;;;;;;;;;;;21.30;1.00;;;;;;4976475;28;20333;-50
2023/09/29 08:10:21;;;;;;;;;;;21.30;1.00;;;;;;4976113;28;19932;-51
2023/09/29 08:12:48;;;;;;;;;;;21.30;1.00;;;;;;4976344;28;19926;-52
2023/09/29 08:15:15;;;;;;;;;;;21.30;1.00;;;;;;4968279;28;19941;-52
2023/09/29 08:17:43;;;;;;;;;;;21.30;1.00;;;;;;4976246;28;20280;-53
2023/09/29 08:20:11;;;;;;;;;;;21.30;1.00;;;;;;4975694;28;19933;-55
2023/09/29 08:22:38;;;;;;;;;;;21.30;1.00;;;;;;4976018;28;19976;-52
2023/09/29 08:25:09;;;;;;;;;;;21.30;1.00;;;;;;4975440;28;19933;-56
2023/09/29 08:27:36;;;;;;;;;;;21.30;1.00;;;;;;4969205;28;19985;-56
2023/09/29 08:30:04;;;;;;;;;;;21.30;1.00;;;;;;4975269;28;20364;-56
2023/09/29 08:32:31;;;;;;;;;;;21.30;1.00;;;;;;4968521;28;19926;-56
2023/09/29 08:34:58;;;;;;;;;;;21.30;1.00;;;;;;4969089;28;20288;-56
2023/09/29 08:37:25;;;;;;;;;;;21.30;1.00;;;;;;4975297;28;19933;-54
2023/09/29 08:39:53;;;;;;;;;;;21.30;1.00;;;;;;4969371;28;19926;-55
2023/09/29 08:42:35;;;;;;;;;;;21.30;1.00;;;;;;4974513;28;19926;-56
2023/09/29 08:45:04;;;;;;;;;;;21.30;1.00;;;;;;4968240;28;19976;-56
2023/09/29 08:47:33;;;;;;;;;;;21.30;1.00;;;;;;4972337;28;19926;-55
2023/09/29 08:50:00;;;;;;;;;;;21.30;1.00;;;;;;4971400;28;20344;-56
2023/09/29 08:52:28;;;;;;;;;;;21.30;1.00;;;;;;4975458;28;19959;-56
2023/09/29 08:54:55;;;;;;;;;;;21.30;1.00;;;;;;4975718;28;19926;-56
2023/09/29 08:57:23;;;;;;;;;;;21.30;1.00;;;;;;4967368;28;20542;-56
2023/09/29 08:59:51;;;;;;;;;;;21.30;1.00;;;;;;4969608;28;20041;-56
2023/09/29 09:02:19;;;;;;;;;;;21.30;1.00;;;;;;4973483;28;19926;-56
2023/09/29 09:04:47;;;;;;;;;;;21.30;1.00;;;;;;4966538;28;20020;-55
2023/09/29 09:07:14;;;;;;;;;;;21.30;1.00;;;;;;4967096;28;20400;-56
2023/09/29 09:09:50;;;;;;;;;;;21.30;1.00;;;;;;4975115;28;19926;-56
2023/09/29 09:12:17;;;;;;;;;;;21.30;1.00;;;;;;4975791;28;20032;-56
2023/09/29 09:14:44;;;;;;;;;;;21.30;1.00;;;;;;4975283;28;19933;-56
2023/09/29 09:17:11;;;;;;;;;;;21.30;1.00;;;;;;4967071;28;20009;-55
2023/09/29 09:19:47;;;;;;;;;;;21.30;1.00;;;;;;4966785;28;19933;-56
2023/09/29 09:22:14;;;;;;;;;;;21.30;1.00;;;;;;4974426;28;20355;-56
2023/09/29 09:24:41;;;;;;;;;;;21.30;1.00;;;;;;4967797;28;19985;-57
2023/09/29 09:27:08;;;;;;;;;;;21.40;1.00;;;;;;4975098;28;20012;-56
2023/09/29 09:29:42;;;;;;;;;;;21.40;1.00;;;;;;4963293;28;19965;-57
2023/09/29 09:32:10;;;;;;;;;;;21.40;1.00;;;;;;4971993;28;19981;-57
2023/09/29 09:34:37;;;;;;;;;;;21.40;1.00;;;;;;4975038;28;19930;-56
2023/09/29 09:37:10;;;;;;;;;;;21.40;1.00;;;;;;4967224;28;19973;-57
2023/09/29 09:39:38;;;;;;;;;;;21.40;1.00;;;;;;4974699;28;19985;-56
2023/09/29 09:42:06;;;;;;;;;;;21.40;1.00;;;;;;4974675;28;20291;-57
2023/09/29 09:44:34;;;;;;;;;;;21.40;1.00;;;;;;4963674;28;19984;-57
2023/09/29 09:47:03;;;;;;;;;;;21.40;1.00;;;;;;4970200;28;20379;-57
2023/09/29 09:49:42;;;;;;;;;;;21.40;1.00;;;;;;4966292;28;20005;-55
2023/09/29 09:52:12;;;;;;;;;;;21.40;1.00;;;;;;4966624;28;20020;-57
2023/09/29 09:54:44;;;;;;;;;;;21.40;1.00;;;;;;4963341;28;19981;-57
2023/09/29 09:57:11;;;;;;;;;;;21.40;1.00;;;;;;4946241;29;19926;-56
2023/09/29 09:59:41;;;;;;;;;;;21.40;1.00;;;;;;4962952;28;19926;-57
2023/09/29 10:02:10;;;;;;;;;;;21.40;1.00;;;;;;4970840;28;20272;-56
2023/09/29 10:04:38;;;;;;;;;;;21.40;1.00;;;;;;4974388;28;20365;-56
2023/09/29 10:07:05;;;;;;;;;;;21.30;1.00;;;;;;4974418;28;19927;-56
2023/09/29 10:09:39;;;;;;;;;;;21.40;1.00;;;;;;4965990;28;19966;-56
2023/09/29 10:12:06;;;;;;;;;;;21.30;1.00;;;;;;4974320;28;20403;-55
2023/09/29 10:14:40;;;;;;;;;;;21.30;1.00;;;;;;4974155;28;19977;-55
2023/09/29 10:17:07;;;;;;;;;;;21.30;1.00;;;;;;4974150;28;20044;-53
2023/09/29 10:19:37;;;;;;;;;;;21.40;1.00;;;;;;4973846;28;20010;-54
2023/09/29 10:22:06;;;;;;;;;;;21.40;1.00;;;;;;4974045;28;19926;-56
2023/09/29 10:24:33;;;;;;;;;;;21.30;1.00;;;;;;4965946;28;19926;-56
2023/09/29 10:27:05;;;;;;;;;;;21.30;1.00;;;;;;4973974;28;19926;-56
2023/09/29 10:29:37;;;;;;;;;;;21.30;1.00;;;;;;4963422;28;19981;-56
2023/09/29 10:32:13;;;;;;;;;;;21.30;1.00;;;;;;4969417;28;20028;-56
2023/09/29 10:34:41;;;;;;;;;;;21.30;1.00;;;;;;4966098;28;19933;-60
2023/09/29 10:37:09;;;;;;;;;;;21.30;1.00;;;;;;4973782;28;19937;-53
2023/09/29 10:39:36;;;;;;;;;;;21.30;1.00;;;;;;4970601;28;19961;-56
2023/09/29 10:42:12;;;;;;;;;;;21.30;1.00;;;;;;4962529;28;19977;-56
2023/09/29 10:44:44;;;;;;;;;;;21.30;1.00;;;;;;4973702;28;20379;-55
2023/09/29 10:47:14;;;;;;;;;;;21.40;1.00;;;;;;4973729;28;19981;-56
2023/09/29 10:49:45;;;;;;;;;;;21.40;1.00;;;;;;4970621;28;19926;-56
2023/09/29 10:52:19;;;;;;;;;;;21.30;1.00;;;;;;4969948;28;19933;-56
2023/09/29 10:54:46;;;;;;;;;;;21.30;1.00;;;;;;4966509;28;19926;-56
2023/09/29 10:57:18;;;;;;;;;;;21.40;1.00;;;;;;4973555;28;19926;-55
2023/09/29 10:59:45;;;;;;;;;;;21.40;1.00;;;;;;4973150;28;19926;-56
2023/09/29 11:02:12;;;;;;;;;;;21.30;1.00;;;;;;4973494;28;19926;-56
2023/09/29 11:04:39;;;;;;;;;;;21.40;1.00;;;;;;4973583;28;19933;-56
2023/09/29 11:07:06;;;;;;;;;;;21.40;1.00;;;;;;4972929;28;19949;-53
2023/09/29 11:09:33;;;;;;;;;;;21.40;1.00;;;;;;4964998;28;20026;-57
2023/09/29 11:11:59;;;;;;;;;;;21.40;1.00;;;;;;4965477;28;20411;-55
2023/09/29 11:14:36;;;;;;;;;;;21.40;1.00;;;;;;4973194;28;19926;-56
2023/09/29 11:17:03;;;;;;;;;;;21.40;1.00;;;;;;4973308;28;19926;-57
2023/09/29 11:19:31;;;;;;;;;;;21.40;1.00;;;;;;4972864;28;20296;-57
2023/09/29 11:22:00;;;;;;;;;;;21.40;1.00;;;;;;4968066;28;20404;-56
2023/09/29 11:24:37;;;;;;;;;;;21.40;1.00;;;;;;4971099;28;19930;-54
2023/09/29 11:27:05;;;;;;;;;;;21.40;1.00;;;;;;4968550;28;19977;-57
2023/09/29 11:29:32;;;;;;;;;;;21.40;1.00;;;;;;4957946;28;19996;-57
2023/09/29 11:31:59;;;;;;;;;;;21.40;1.00;;;;;;4977771;28;20021;-55
2023/09/29 11:34:29;;;;;;;;;;;21.40;1.00;;;;;;4969122;28;19926;-55
2023/09/29 11:36:56;;;;;;;;;;;21.40;1.00;;;;;;4977155;28;19933;-56
2023/09/29 11:39:23;;;;;;;;;;;21.40;1.00;;;;;;5056930;23;20263;-54
2023/09/29 11:41:50;;;;;;;;;;;21.40;1.00;;;;;;4957420;29;19930;-56
2023/09/29 11:44:17;;;;;;;;;;;21.40;1.00;;;;;;4957648;29;19982;-57
2023/09/29 11:46:44;;;;;;;;;;;21.40;1.00;;;;;;4957519;29;19930;-57
2023/09/29 11:49:11;;;;;;;;;;;21.40;1.00;;;;;;4961830;28;19926;-54
2023/09/29 11:51:38;;;;;;;;;;;21.40;1.00;;;;;;4968846;28;20025;-56
2023/09/29 11:54:05;;;;;;;;;;;21.40;1.00;;;;;;4976918;28;19980;-56
2023/09/29 11:56:33;;;;;;;;;;;21.40;1.00;;;;;;4967225;28;19949;-56
2023/09/29 11:58:59;;;;;;;;;;;21.50;1.00;;;;;;4965049;28;19976;-57
2023/09/29 12:01:26;;;;;;;;;;;21.40;1.00;;;;;;4974051;28;19981;-57
2023/09/29 12:03:54;;;;;;;;;;;21.50;1.00;;;;;;4976634;28;19926;-57
2023/09/29 12:06:22;;;;;;;;;;;21.40;1.00;;;;;;4968569;28;19927;-57
2023/09/29 12:08:49;;;;;;;;;;;21.40;1.00;;;;;;4976439;28;19959;-57
2023/09/29 12:11:19;;;;;;;;;;;21.50;1.00;;;;;;4969168;28;19932;-56
2023/09/29 12:13:47;;;;;;;;;;;21.40;1.00;;;;;;4976357;28;20008;-55
2023/09/29 12:16:15;;;;;;;;;;;21.50;1.00;;;;;;4959493;28;20392;-57
2023/09/29 12:18:42;;;;;;;;;;;21.50;1.00;;;;;;4973704;28;20338;-56
2023/09/29 12:21:10;;;;;;;;;;;21.50;1.00;;;;;;4970927;28;20264;-57
2023/09/29 12:23:38;;;;;;;;;;;21.50;1.00;;;;;;4976309;28;19937;-57
2023/09/29 12:26:05;;;;;;;;;;;21.50;1.00;;;;;;4976312;28;19957;-56
2023/09/29 12:28:33;;;;;;;;;;;21.50;1.00;;;;;;4968183;28;19926;-57
2023/09/29 12:30:59;;;;;;;;;;;21.50;1.00;;;;;;4971403;28;20369;-57
2023/09/29 12:33:26;;;;;;;;;;;21.50;1.00;;;;;;4972933;28;19926;-57
2023/09/29 12:35:53;;;;;;;;;;;21.50;1.00;;;;;;4976149;28;19926;-57
2023/09/29 12:38:20;;;;;;;;;;;21.50;1.00;;;;;;4974792;28;19926;-56
2023/09/29 12:40:47;;;;;;;;;;;21.50;1.00;;;;;;4967435;28;20404;-55
2023/09/29 12:43:14;;;;;;;;;;;21.50;1.00;;;;;;4975912;28;19926;-57
2023/09/29 12:45:41;;;;;;;;;;;21.50;1.00;;;;;;4967787;28;19954;-57
2023/09/29 12:48:07;;;;;;;;;;;21.50;1.00;;;;;;4975827;28;20300;-57
2023/09/29 12:50:38;;;;;;;;;;;21.50;1.00;;;;;;4975367;28;19926;-57
2023/09/29 12:53:05;;;;;;;;;;;21.50;1.00;;;;;;4970907;28;20005;-57
2023/09/29 12:55:32;;;;;;;;;;;21.50;1.00;;;;;;4973002;28;19926;-57
2023/09/29 12:58:05;;;;;;;;;;;21.50;1.00;;;;;;4975596;28;20295;-56
2023/09/29 13:00:34;;;;;;;;;;;21.50;1.00;;;;;;4975035;28;20399;-56
2023/09/29 13:03:07;;;;;;;;;;;21.50;1.00;;;;;;4976221;28;19977;-56
2023/09/29 13:05:37;;;;;;;;;;;21.50;1.00;;;;;;4977184;28;19926;-56
2023/09/29 13:08:05;;;;;;;;;;;21.50;1.00;;;;;;4976402;28;20467;-56
2023/09/29 13:10:35;;;;;;;;;;;21.50;1.00;;;;;;4966948;28;19926;-53
2023/09/29 13:13:03;;;;;;;;;;;21.50;1.00;;;;;;4968706;28;19926;-59
2023/09/29 13:15:31;;;;;;;;;;;21.50;1.00;;;;;;4965408;28;20002;-57
2023/09/29 13:17:58;;;;;;;;;;;21.60;1.00;;;;;;4975297;28;19985;-55
2023/09/29 13:20:25;;;;;;;;;;;21.50;1.00;;;;;;4974929;28;19926;-55
2023/09/29 13:22:52;;;;;;;;;;;21.50;1.00;;;;;;4967190;28;20025;-56
2023/09/29 13:25:18;;;;;;;;;;;21.60;1.00;;;;;;4975231;28;20032;-55
2023/09/29 13:27:45;;;;;;;;;;;21.60;1.00;;;;;;4974944;28;19950;-57
2023/09/29 13:30:13;;;;;;;;;;;21.50;1.00;;;;;;4969160;28;20381;-56
2023/09/29 13:32:40;;;;;;;;;;;21.60;1.00;;;;;;4972927;28;19937;-55
2023/09/29 13:35:08;;;;;;;;;;;21.60;1.00;;;;;;4969921;28;19938;-57
2023/09/29 13:37:36;;;;;;;;;;;21.60;1.00;;;;;;4972346;28;19926;-55
2023/09/29 13:40:05;;;;;;;;;;;21.60;1.00;;;;;;4966625;28;20040;-55
2023/09/29 13:42:34;;;;;;;;;;;21.60;1.00;;;;;;4974782;28;19926;-57
2023/09/29 13:45:01;;;;;;;;;;;21.60;1.00;;;;;;4966784;28;19937;-55
2023/09/29 13:47:28;;;;;;;;;;;21.60;1.00;;;;;;4974806;28;19925;-53
2023/09/29 13:49:55;;;;;;;;;;;21.60;1.00;;;;;;4966236;28;20377;-56
2023/09/29 13:52:22;;;;;;;;;;;21.60;1.00;;;;;;4967761;28;19933;-57
2023/09/29 13:54:49;;;;;;;;;;;21.60;1.00;;;;;;4973171;28;20020;-57
2023/09/29 13:57:16;;;;;;;;;;;21.60;1.00;;;;;;4974520;28;19973;-55
2023/09/29 13:59:43;;;;;;;;;;;21.60;1.00;;;;;;4974094;28;19930;-57
2023/09/29 14:02:10;;;;;;;;;;;21.60;1.00;;;;;;4966543;28;20009;-57
2023/09/29 14:04:37;;;;;;;;;;;21.60;1.00;;;;;;4974362;28;19981;-55
2023/09/29 14:07:04;;;;;;;;;;;21.70;1.00;;;;;;4974363;28;19934;-57
2023/09/29 14:09:30;;;;;;;;;;;21.70;1.00;;;;;;4966176;28;19930;-57
2023/09/29 14:11:57;;;;;;;;;;;21.70;1.00;;;;;;4973984;28;20379;-57
2023/09/29 14:14:25;;;;;;;;;;;21.60;1.00;;;;;;4965938;28;19926;-57
2023/09/29 14:16:52;;;;;;;;;;;21.70;1.00;;;;;;4973857;28;19933;-57
2023/09/29 14:19:18;;;;;;;;;;;21.70;1.00;;;;;;4973909;28;19949;-57
2023/09/29 14:21:47;;;;;;;;;;;21.70;1.00;;;;;;4964348;28;20041;-57
2023/09/29 14:24:17;;;;;;;;;;;21.70;1.00;;;;;;4968401;28;19933;-55
2023/09/29 14:26:45;;;;;;;;;;;21.70;1.00;;;;;;4974020;28;19973;-55
2023/09/29 14:29:12;;;;;;;;;;;21.70;1.00;;;;;;4973682;28;19926;-55
2023/09/29 14:31:44;;;;;;;;;;;21.70;1.00;;;;;;4973793;28;20442;-57
2023/09/29 14:34:11;;;;;;;;;;;21.70;1.00;;;;;;4965798;28;19930;-55
2023/09/29 14:36:38;;;;;;;;;;;21.70;1.00;;;;;;4973735;28;19926;-54